sensor_id;sensor_type;location;lat;lon;timestamp;pressure;altitude;pressure_sealevel;temperature;humidity
37312;BME280;23197;53.912;9.138;2022-11-20T00:01:11;101225.00;;;6.31;64.98
37312;BME280;23197;53.912;9.138;2022-11-20T00:03:38;101217.19;;;6.33;65.18
37312;BME280;23197;53.912;9.138;2022-11-20T00:06:06;101216.28;;;6.34;65.28
37312;BME280;23197;53.912;9.138;2022-11-20T00:08:31;101222.16;;;6.37;64.84
37312;BME280;23197;53.912;9.138;2022-11-20T00:10:57;101216.06;;;6.38;64.80
37312;BME280;23197;53.912;9.138;2022-11-20T00:13:22;101219.47;;;6.40;64.57
37312;BME280;23197;53.912;9.138;2022-11-20T00:15:48;101212.44;;;6.42;64.50
37312;BME280;23197;53.912;9.138;2022-11-20T00:18:14;101218.41;;;6.44;64.81
37312;BME280;23197;53.912;9.138;2022-11-20T00:20:39;101209.72;;;6.45;64.59
37312;BME280;23197;53.912;9.138;2022-11-20T00:23:05;101215.72;;;6.47;64.48
37312;BME280;23197;53.912;9.138;2022-11-20T00:25:33;101214.03;;;6.46;64.14
37312;BME280;23197;53.912;9.138;2022-11-20T00:27:59;101215.72;;;6.47;64.40
37312;BME280;23197;53.912;9.138;2022-11-20T00:30:25;101213.13;;;6.47;64.40
37312;BME280;23197;53.912;9.138;2022-11-20T00:32:50;101210.53;;;6.47;63.92
37312;BME280;23197;53.912;9.138;2022-11-20T00:35:16;101212.31;;;6.45;64.29
37312;BME280;23197;53.912;9.138;2022-11-20T00:37:41;101208.03;;;6.44;64.27
37312;BME280;23197;53.912;9.138;2022-11-20T00:40:07;101212.44;;;6.42;64.32
37312;BME280;23197;53.912;9.138;2022-11-20T00:42:33;101210.78;;;6.41;64.28
37312;BME280;23197;53.912;9.138;2022-11-20T00:44:59;101212.59;;;6.39;64.26
37312;BME280;23197;53.912;9.138;2022-11-20T00:47:24;101210.88;;;6.38;64.13
37312;BME280;23197;53.912;9.138;2022-11-20T00:49:50;101205.69;;;6.38;63.92
37312;BME280;23197;53.912;9.138;2022-11-20T00:52:15;101204.00;;;6.37;64.10
37312;BME280;23197;53.912;9.138;2022-11-20T00:54:40;101201.41;;;6.37;64.32
37312;BME280;23197;53.912;9.138;2022-11-20T00:57:06;101204.00;;;6.37;64.39
37312;BME280;23197;53.912;9.138;2022-11-20T00:59:31;101205.81;;;6.35;63.99
37312;BME280;23197;53.912;9.138;2022-11-20T01:01:57;101200.63;;;6.35;64.34
37312;BME280;23197;53.912;9.138;2022-11-20T01:04:22;101195.50;;;6.34;63.94
37312;BME280;23197;53.912;9.138;2022-11-20T01:06:48;101193.75;;;6.34;64.17
37312;BME280;23197;53.912;9.138;2022-11-20T01:09:14;101188.56;;;6.34;64.26
37312;BME280;23197;53.912;9.138;2022-11-20T01:11:41;101190.31;;;6.34;64.05
37312;BME280;23197;53.912;9.138;2022-11-20T01:14:10;101186.88;;;6.33;64.03
37312;BME280;23197;53.912;9.138;2022-11-20T01:16:39;101187.66;;;6.35;64.18
37312;BME280;23197;53.912;9.138;2022-11-20T01:19:10;101185.06;;;6.35;63.85
37312;BME280;23197;53.912;9.138;2022-11-20T01:21:37;101176.34;;;6.36;63.97
37312;BME280;23197;53.912;9.138;2022-11-20T01:24:05;101176.34;;;6.36;63.74
37312;BME280;23197;53.912;9.138;2022-11-20T01:26:33;101171.16;;;6.36;63.96
37312;BME280;23197;53.912;9.138;2022-11-20T01:29:00;101172.00;;;6.37;63.83
37312;BME280;23197;53.912;9.138;2022-11-20T01:31:31;101175.53;;;6.36;63.84
37312;BME280;23197;53.912;9.138;2022-11-20T01:34:00;101176.34;;;6.36;63.46
37312;BME280;23197;53.912;9.138;2022-11-20T01:36:29;101172.16;;;6.34;63.69
37312;BME280;23197;53.912;9.138;2022-11-20T01:38:57;101176.59;;;6.30;63.44
37312;BME280;23197;53.912;9.138;2022-11-20T01:41:27;101174.06;;;6.29;63.44
37312;BME280;23197;53.912;9.138;2022-11-20T01:44:13;101171.59;;;6.25;63.33
37312;BME280;23197;53.912;9.138;2022-11-20T01:46:53;101170.81;;;6.23;63.16
37312;BME280;23197;53.912;9.138;2022-11-20T01:49:25;101165.69;;;6.22;63.02
37312;BME280;23197;53.912;9.138;2022-11-20T01:51:57;101164.00;;;6.21;63.34
37312;BME280;23197;53.912;9.138;2022-11-20T01:54:35;101157.91;;;6.22;63.33
37312;BME280;23197;53.912;9.138;2022-11-20T01:57:02;101162.19;;;6.23;63.38
37312;BME280;23197;53.912;9.138;2022-11-20T01:59:30;101151.81;;;6.23;62.94
37312;BME280;23197;53.912;9.138;2022-11-20T02:01:56;101160.44;;;6.23;63.38
37312;BME280;23197;53.912;9.138;2022-11-20T02:04:22;101162.19;;;6.23;62.90
37312;BME280;23197;53.912;9.138;2022-11-20T02:06:52;101145.84;;;6.21;62.86
37312;BME280;23197;53.912;9.138;2022-11-20T02:09:18;101147.63;;;6.19;62.75
37312;BME280;23197;53.912;9.138;2022-11-20T02:11:44;101142.59;;;6.16;62.53
37312;BME280;23197;53.912;9.138;2022-11-20T02:14:10;101151.28;;;6.15;62.42
37312;BME280;23197;53.912;9.138;2022-11-20T02:16:43;101141.00;;;6.12;62.27
37312;BME280;23197;53.912;9.138;2022-11-20T02:19:28;101140.25;;;6.10;62.68
37312;BME280;23197;53.912;9.138;2022-11-20T02:22:14;101143.84;;;6.06;62.05
37312;BME280;23197;53.912;9.138;2022-11-20T02:24:45;101134.53;;;6.02;62.23
37312;BME280;23197;53.912;9.138;2022-11-20T02:27:15;101138.97;;;5.98;62.23
37312;BME280;23197;53.912;9.138;2022-11-20T02:29:57;101136.59;;;5.93;62.56
37312;BME280;23197;53.912;9.138;2022-11-20T02:32:29;101136.66;;;5.90;62.65
37312;BME280;23197;53.912;9.138;2022-11-20T02:34:55;101138.47;;;5.88;62.63
37312;BME280;23197;53.912;9.138;2022-11-20T02:37:21;101130.88;;;5.84;62.73
37312;BME280;23197;53.912;9.138;2022-11-20T02:39:49;101131.84;;;5.81;62.60
37312;BME280;23197;53.912;9.138;2022-11-20T02:42:15;101143.97;;;5.81;62.60
37312;BME280;23197;53.912;9.138;2022-11-20T02:44:40;101135.44;;;5.77;63.17
37312;BME280;23197;53.912;9.138;2022-11-20T02:47:06;101127.75;;;5.76;63.21
37312;BME280;23197;53.912;9.138;2022-11-20T02:49:32;101132.13;;;5.73;62.57
37312;BME280;23197;53.912;9.138;2022-11-20T02:51:58;101129.53;;;5.73;62.62
37312;BME280;23197;53.912;9.138;2022-11-20T02:54:24;101118.44;;;5.70;62.64
37312;BME280;23197;53.912;9.138;2022-11-20T02:56:50;101128.03;;;5.68;61.99
37312;BME280;23197;53.912;9.138;2022-11-20T02:59:15;101122.06;;;5.66;61.87
37312;BME280;23197;53.912;9.138;2022-11-20T03:01:41;101123.88;;;5.64;61.54
37312;BME280;23197;53.912;9.138;2022-11-20T03:04:07;101119.66;;;5.61;61.38
37312;BME280;23197;53.912;9.138;2022-11-20T03:06:32;101119.69;;;5.60;60.81
37312;BME280;23197;53.912;9.138;2022-11-20T03:08:58;101125.06;;;5.55;61.13
37312;BME280;23197;53.912;9.138;2022-11-20T03:11:24;101119.09;;;5.53;60.93
37312;BME280;23197;53.912;9.138;2022-11-20T03:13:49;101120.97;;;5.50;61.03
37312;BME280;23197;53.912;9.138;2022-11-20T03:16:19;101116.69;;;5.49;61.22
37312;BME280;23197;53.912;9.138;2022-11-20T03:18:45;101108.09;;;5.47;60.92
37312;BME280;23197;53.912;9.138;2022-11-20T03:21:12;101112.50;;;5.44;60.66
37312;BME280;23197;53.912;9.138;2022-11-20T03:23:39;101110.94;;;5.40;60.28
37312;BME280;23197;53.912;9.138;2022-11-20T03:26:14;101099.91;;;5.35;60.57
37312;BME280;23197;53.912;9.138;2022-11-20T03:28:41;101100.91;;;5.31;60.32
37312;BME280;23197;53.912;9.138;2022-11-20T03:31:13;101095.97;;;5.25;59.89
37312;BME280;23197;53.912;9.138;2022-11-20T03:33:40;101094.44;;;5.20;60.07
37312;BME280;23197;53.912;9.138;2022-11-20T03:36:08;101094.59;;;5.15;60.10
37312;BME280;23197;53.912;9.138;2022-11-20T03:38:34;101092.22;;;5.10;59.31
37312;BME280;23197;53.912;9.138;2022-11-20T03:41:12;101086.41;;;5.04;59.98
37312;BME280;23197;53.912;9.138;2022-11-20T03:43:37;101080.41;;;5.02;59.94
37312;BME280;23197;53.912;9.138;2022-11-20T03:46:04;101089.16;;;4.99;59.69
37312;BME280;23197;53.912;9.138;2022-11-20T03:48:30;101083.19;;;4.97;60.32
37312;BME280;23197;53.912;9.138;2022-11-20T03:51:13;101087.47;;;4.98;60.27
37312;BME280;23197;53.912;9.138;2022-11-20T03:53:40;101090.13;;;4.97;61.02
37312;BME280;23197;53.912;9.138;2022-11-20T03:56:07;101090.22;;;4.94;61.41
37312;BME280;23197;53.912;9.138;2022-11-20T03:58:36;101094.56;;;4.93;62.17
37312;BME280;23197;53.912;9.138;2022-11-20T04:01:08;101096.25;;;4.94;62.30
37312;BME280;23197;53.912;9.138;2022-11-20T04:03:35;101090.16;;;4.95;62.19
37312;BME280;23197;53.912;9.138;2022-11-20T04:06:05;101090.13;;;4.97;62.39
37312;BME280;23197;53.912;9.138;2022-11-20T04:08:31;101085.78;;;4.97;62.77
37312;BME280;23197;53.912;9.138;2022-11-20T04:11:11;101082.38;;;4.97;62.81
37312;BME280;23197;53.912;9.138;2022-11-20T04:13:36;101083.13;;;4.99;62.23
37312;BME280;23197;53.912;9.138;2022-11-20T04:16:02;101076.28;;;4.98;62.23
37312;BME280;23197;53.912;9.138;2022-11-20T04:18:28;101082.38;;;4.97;62.05
37312;BME280;23197;53.912;9.138;2022-11-20T04:20:53;101075.53;;;4.94;62.11
37312;BME280;23197;53.912;9.138;2022-11-20T04:23:19;101076.38;;;4.95;62.12
37312;BME280;23197;53.912;9.138;2022-11-20T04:25:44;101065.22;;;4.93;61.83
37312;BME280;23197;53.912;9.138;2022-11-20T04:28:09;101064.31;;;4.94;61.60
37312;BME280;23197;53.912;9.138;2022-11-20T04:30:35;101069.50;;;4.94;61.94
37312;BME280;23197;53.912;9.138;2022-11-20T04:33:00;101060.97;;;4.92;61.24
37312;BME280;23197;53.912;9.138;2022-11-20T04:35:26;101069.56;;;4.92;61.25
37312;BME280;23197;53.912;9.138;2022-11-20T04:37:51;101073.00;;;4.93;61.46
37312;BME280;23197;53.912;9.138;2022-11-20T04:40:17;101063.50;;;4.93;61.76
37312;BME280;23197;53.912;9.138;2022-11-20T04:42:42;101062.66;;;4.93;61.24
37312;BME280;23197;53.912;9.138;2022-11-20T04:45:08;101062.78;;;4.89;61.64
37312;BME280;23197;53.912;9.138;2022-11-20T04:47:33;101060.19;;;4.89;61.78
37312;BME280;23197;53.912;9.138;2022-11-20T04:49:59;101063.66;;;4.88;61.99
37312;BME280;23197;53.912;9.138;2022-11-20T04:52:24;101067.94;;;4.89;61.95
37312;BME280;23197;53.912;9.138;2022-11-20T04:54:50;101064.47;;;4.90;62.21
37312;BME280;23197;53.912;9.138;2022-11-20T04:57:18;101060.97;;;4.92;62.39
37312;BME280;23197;53.912;9.138;2022-11-20T04:59:43;101060.06;;;4.93;62.38
37312;BME280;23197;53.912;9.138;2022-11-20T05:02:09;101049.69;;;4.93;62.61
37312;BME280;23197;53.912;9.138;2022-11-20T05:04:35;101061.81;;;4.92;62.42
37312;BME280;23197;53.912;9.138;2022-11-20T05:07:00;101063.63;;;4.90;62.88
37312;BME280;23197;53.912;9.138;2022-11-20T05:09:26;101062.72;;;4.91;62.59
37312;BME280;23197;53.912;9.138;2022-11-20T05:11:51;101053.19;;;4.92;62.61
37312;BME280;23197;53.912;9.138;2022-11-20T05:14:17;101046.25;;;4.92;62.73
37312;BME280;23197;53.912;9.138;2022-11-20T05:16:42;101043.53;;;4.95;62.95
37312;BME280;23197;53.912;9.138;2022-11-20T05:19:08;101047.00;;;4.96;62.93
37312;BME280;23197;53.912;9.138;2022-11-20T05:21:33;101047.84;;;4.96;62.51
37312;BME280;23197;53.912;9.138;2022-11-20T05:23:59;101046.88;;;4.99;62.89
37312;BME280;23197;53.912;9.138;2022-11-20T05:26:24;101046.88;;;4.99;62.96
37312;BME280;23197;53.912;9.138;2022-11-20T05:28:50;101049.47;;;4.99;63.17
37312;BME280;23197;53.912;9.138;2022-11-20T05:31:18;101048.56;;;5.00;63.09
37312;BME280;23197;53.912;9.138;2022-11-20T05:33:44;101047.63;;;5.02;63.07
37312;BME280;23197;53.912;9.138;2022-11-20T05:36:14;101039.72;;;5.05;63.49
37312;BME280;23197;53.912;9.138;2022-11-20T05:38:40;101037.06;;;5.07;63.61
37312;BME280;23197;53.912;9.138;2022-11-20T05:41:11;101040.47;;;5.09;63.65
37312;BME280;23197;53.912;9.138;2022-11-20T05:43:38;101041.13;;;5.14;63.33
37312;BME280;23197;53.912;9.138;2022-11-20T05:46:06;101034.03;;;5.19;63.24
37312;BME280;23197;53.912;9.138;2022-11-20T05:48:32;101032.16;;;5.23;63.21
37312;BME280;23197;53.912;9.138;2022-11-20T05:50:59;101023.34;;;5.27;63.79
37312;BME280;23197;53.912;9.138;2022-11-20T05:53:25;101025.00;;;5.29;63.90
37312;BME280;23197;53.912;9.138;2022-11-20T05:56:02;101018.91;;;5.30;63.68
37312;BME280;23197;53.912;9.138;2022-11-20T05:58:28;101011.00;;;5.33;63.26
37312;BME280;23197;53.912;9.138;2022-11-20T06:00:54;101004.91;;;5.34;63.78
37312;BME280;23197;53.912;9.138;2022-11-20T06:03:20;100998.03;;;5.33;63.99
37312;BME280;23197;53.912;9.138;2022-11-20T06:05:45;101001.63;;;5.31;63.90
37312;BME280;23197;53.912;9.138;2022-11-20T06:08:11;101002.44;;;5.31;64.10
37312;BME280;23197;53.912;9.138;2022-11-20T06:10:37;101005.81;;;5.33;63.86
37312;BME280;23197;53.912;9.138;2022-11-20T06:13:02;101004.88;;;5.36;63.94
37312;BME280;23197;53.912;9.138;2022-11-20T06:15:27;100997.03;;;5.37;64.16
37312;BME280;23197;53.912;9.138;2022-11-20T06:17:53;101000.41;;;5.39;63.67
37312;BME280;23197;53.912;9.138;2022-11-20T06:20:20;100998.59;;;5.41;63.80
37312;BME280;23197;53.912;9.138;2022-11-20T06:22:46;100986.44;;;5.43;63.85
37312;BME280;23197;53.912;9.138;2022-11-20T06:25:11;100983.84;;;5.43;63.85
37312;BME280;23197;53.912;9.138;2022-11-20T06:27:36;100992.38;;;5.45;63.33
37312;BME280;23197;53.912;9.138;2022-11-20T06:30:03;101024.53;;;5.41;63.10
37312;BME280;23197;53.912;9.138;2022-11-20T06:32:28;101029.97;;;5.34;63.94
37312;BME280;23197;53.912;9.138;2022-11-20T06:34:54;101030.28;;;5.26;63.96
37312;BME280;23197;53.912;9.138;2022-11-20T06:37:19;101025.34;;;5.20;64.55
37312;BME280;23197;53.912;9.138;2022-11-20T06:39:45;101021.06;;;5.19;64.85
37312;BME280;23197;53.912;9.138;2022-11-20T06:42:10;101034.84;;;5.20;64.50
37312;BME280;23197;53.912;9.138;2022-11-20T06:44:36;101034.03;;;5.19;64.79
37312;BME280;23197;53.912;9.138;2022-11-20T06:47:01;101030.53;;;5.20;65.50
37312;BME280;23197;53.912;9.138;2022-11-20T06:49:27;101032.94;;;5.25;65.42
37312;BME280;23197;53.912;9.138;2022-11-20T06:51:52;101025.94;;;5.27;65.92
37312;BME280;23197;53.912;9.138;2022-11-20T06:54:18;101029.22;;;5.32;65.99
37312;BME280;23197;53.912;9.138;2022-11-20T06:56:49;101027.28;;;5.37;66.26
37312;BME280;23197;53.912;9.138;2022-11-20T06:59:14;101029.72;;;5.41;66.01
37312;BME280;23197;53.912;9.138;2022-11-20T07:01:40;101025.13;;;5.48;65.96
37312;BME280;23197;53.912;9.138;2022-11-20T07:04:05;101024.16;;;5.51;66.04
37312;BME280;23197;53.912;9.138;2022-11-20T07:06:31;101028.34;;;5.53;66.06
37312;BME280;23197;53.912;9.138;2022-11-20T07:08:57;101027.28;;;5.59;65.20
37312;BME280;23197;53.912;9.138;2022-11-20T07:11:22;101014.97;;;5.64;65.78
37312;BME280;23197;53.912;9.138;2022-11-20T07:13:48;101006.19;;;5.68;65.39
37312;BME280;23197;53.912;9.138;2022-11-20T07:16:15;101013.81;;;5.71;64.91
37312;BME280;23197;53.912;9.138;2022-11-20T07:18:41;101021.53;;;5.72;64.31
37312;BME280;23197;53.912;9.138;2022-11-20T07:21:08;101020.69;;;5.72;63.94
37312;BME280;23197;53.912;9.138;2022-11-20T07:23:35;101023.22;;;5.73;64.02
37312;BME280;23197;53.912;9.138;2022-11-20T07:26:09;101007.63;;;5.75;64.13
37312;BME280;23197;53.912;9.138;2022-11-20T07:28:36;101017.84;;;5.78;64.36
37312;BME280;23197;53.912;9.138;2022-11-20T07:31:02;101021.22;;;5.80;64.60
37312;BME280;23197;53.912;9.138;2022-11-20T07:33:28;101018.50;;;5.83;64.78
37312;BME280;23197;53.912;9.138;2022-11-20T07:35:53;101020.97;;;5.86;65.05
37312;BME280;23197;53.912;9.138;2022-11-20T07:38:19;101017.34;;;5.90;64.87
37312;BME280;23197;53.912;9.138;2022-11-20T07:40:45;101019.00;;;5.93;65.31
37312;BME280;23197;53.912;9.138;2022-11-20T07:43:10;101020.63;;;5.95;65.93
37312;BME280;23197;53.912;9.138;2022-11-20T07:45:36;101025.69;;;5.98;65.78
37312;BME280;23197;53.912;9.138;2022-11-20T07:48:01;101026.47;;;6.01;65.89
37312;BME280;23197;53.912;9.138;2022-11-20T07:50:27;101028.94;;;6.04;65.66
37312;BME280;23197;53.912;9.138;2022-11-20T07:53:00;101027.09;;;6.06;65.94
37312;BME280;23197;53.912;9.138;2022-11-20T07:55:25;101024.41;;;6.09;66.23
37312;BME280;23197;53.912;9.138;2022-11-20T07:57:55;101027.84;;;6.09;66.12
37312;BME280;23197;53.912;9.138;2022-11-20T08:00:21;101030.25;;;6.14;66.42
37312;BME280;23197;53.912;9.138;2022-11-20T08:02:47;101020.44;;;6.20;66.93
37312;BME280;23197;53.912;9.138;2022-11-20T08:05:12;101021.03;;;6.27;66.73
37312;BME280;23197;53.912;9.138;2022-11-20T08:07:42;101020.75;;;6.33;66.46
37312;BME280;23197;53.912;9.138;2022-11-20T08:10:10;101019.63;;;6.39;66.66
37312;BME280;23197;53.912;9.138;2022-11-20T08:12:36;101028.91;;;6.44;66.70
37312;BME280;23197;53.912;9.138;2022-11-20T08:15:20;101026.13;;;6.49;66.47
37312;BME280;23197;53.912;9.138;2022-11-20T08:17:46;101022.50;;;6.53;66.77
37312;BME280;23197;53.912;9.138;2022-11-20T08:20:11;101024.75;;;6.61;66.39
37312;BME280;23197;53.912;9.138;2022-11-20T08:22:37;101025.44;;;6.64;66.48
37312;BME280;23197;53.912;9.138;2022-11-20T08:25:02;101021.78;;;6.68;66.50
37312;BME280;23197;53.912;9.138;2022-11-20T08:27:28;101027.63;;;6.73;66.33
37312;BME280;23197;53.912;9.138;2022-11-20T08:29:53;101024.81;;;6.78;66.66
37312;BME280;23197;53.912;9.138;2022-11-20T08:32:19;101026.25;;;6.85;66.75
37312;BME280;23197;53.912;9.138;2022-11-20T08:34:44;101024.34;;;6.89;66.53
37312;BME280;23197;53.912;9.138;2022-11-20T08:37:10;101027.56;;;6.94;66.64
37312;BME280;23197;53.912;9.138;2022-11-20T08:39:35;101025.63;;;6.99;66.66
37312;BME280;23197;53.912;9.138;2022-11-20T08:42:01;101021.09;;;7.02;66.33
37312;BME280;23197;53.912;9.138;2022-11-20T08:44:26;101029.53;;;7.07;66.72
37312;BME280;23197;53.912;9.138;2022-11-20T08:46:51;101029.38;;;7.11;66.80
37312;BME280;23197;53.912;9.138;2022-11-20T08:49:17;101033.47;;;7.16;66.96
37312;BME280;23197;53.912;9.138;2022-11-20T08:51:43;101036.78;;;7.20;66.63
37312;BME280;23197;53.912;9.138;2022-11-20T08:54:08;101037.41;;;7.25;66.68
37312;BME280;23197;53.912;9.138;2022-11-20T08:56:35;101039.00;;;7.27;66.64
37312;BME280;23197;53.912;9.138;2022-11-20T08:59:00;101040.59;;;7.30;66.33
37312;BME280;23197;53.912;9.138;2022-11-20T09:01:27;101040.47;;;7.33;66.24
37312;BME280;23197;53.912;9.138;2022-11-20T09:03:55;101042.31;;;7.31;66.07
37312;BME280;23197;53.912;9.138;2022-11-20T09:06:22;101052.63;;;7.32;65.94
37312;BME280;23197;53.912;9.138;2022-11-20T09:08:51;101049.31;;;7.29;65.60
37312;BME280;23197;53.912;9.138;2022-11-20T09:11:17;101056.22;;;7.30;65.74
37312;BME280;23197;53.912;9.138;2022-11-20T09:13:43;101052.00;;;7.27;65.71
37312;BME280;23197;53.912;9.138;2022-11-20T09:16:09;101049.59;;;7.23;65.55
37312;BME280;23197;53.912;9.138;2022-11-20T09:18:35;101046.13;;;7.24;65.72
37312;BME280;23197;53.912;9.138;2022-11-20T09:21:11;101047.94;;;7.22;65.50
37312;BME280;23197;53.912;9.138;2022-11-20T09:23:38;101049.75;;;7.20;65.87
37312;BME280;23197;53.912;9.138;2022-11-20T09:26:05;101058.19;;;7.25;65.55
37312;BME280;23197;53.912;9.138;2022-11-20T09:28:31;101048.72;;;7.24;65.72
37312;BME280;23197;53.912;9.138;2022-11-20T09:30:57;101042.59;;;7.25;65.93
37312;BME280;23197;53.912;9.138;2022-11-20T09:33:22;101045.03;;;7.28;66.03
37312;BME280;23197;53.912;9.138;2022-11-20T09:35:48;101047.34;;;7.34;66.25
37312;BME280;23197;53.912;9.138;2022-11-20T09:38:13;101043.56;;;7.41;66.58
37312;BME280;23197;53.912;9.138;2022-11-20T09:41:06;101050.03;;;7.51;67.04
37312;BME280;23197;53.912;9.138;2022-11-20T09:43:51;101045.13;;;7.62;67.59
37312;BME280;23197;53.912;9.138;2022-11-20T09:46:26;101040.97;;;7.77;68.24
37312;BME280;23197;53.912;9.138;2022-11-20T09:51:56;101037.59;;;8.10;69.60
37312;BME280;23197;53.912;9.138;2022-11-20T09:54:29;101042.31;;;8.54;71.29
37312;BME280;23197;53.912;9.138;2022-11-20T09:57:02;101049.00;;;9.08;74.48
37312;BME280;23197;53.912;9.138;2022-11-20T10:01:59;101039.63;;;10.42;80.63
37312;BME280;23197;53.912;9.138;2022-11-20T10:04:27;101032.19;;;10.78;80.48
37312;BME280;23197;53.912;9.138;2022-11-20T10:07:16;101040.38;;;11.15;80.26
37312;BME280;23197;53.912;9.138;2022-11-20T10:09:51;101031.06;;;11.38;79.14
37312;BME280;23197;53.912;9.138;2022-11-20T10:17:23;101027.31;;;12.09;78.42
37312;BME280;23197;53.912;9.138;2022-11-20T10:25:05;101024.41;;;13.85;84.21
37312;BME280;23197;53.912;9.138;2022-11-20T10:30:16;101017.56;;;15.19;83.83
37312;BME280;23197;53.912;9.138;2022-11-20T10:32:45;101011.50;;;15.62;79.99
37312;BME280;23197;53.912;9.138;2022-11-20T10:35:20;101012.81;;;16.09;80.78
37312;BME280;23197;53.912;9.138;2022-11-20T10:37:50;101010.31;;;16.59;80.02
37312;BME280;23197;53.912;9.138;2022-11-20T10:40:33;101008.28;;;17.13;78.10
37312;BME280;23197;53.912;9.138;2022-11-20T10:45:46;101002.22;;;17.51;64.21
37312;BME280;23197;53.912;9.138;2022-11-20T10:48:19;100994.44;;;17.30;58.89
37312;BME280;23197;53.912;9.138;2022-11-20T11:01:44;100996.44;;;15.09;53.30
37312;BME280;23197;53.912;9.138;2022-11-20T11:04:37;100988.47;;;14.66;54.69
37312;BME280;23197;53.912;9.138;2022-11-20T11:09:48;100981.50;;;14.09;56.81
37312;BME280;23197;53.912;9.138;2022-11-20T11:12:14;100971.75;;;13.76;53.94
37312;BME280;23197;53.912;9.138;2022-11-20T11:14:48;100973.69;;;13.26;53.42
37312;BME280;23197;53.912;9.138;2022-11-20T11:17:31;100978.53;;;12.70;53.18
37312;BME280;23197;53.912;9.138;2022-11-20T11:20:18;100970.09;;;12.28;54.37
37312;BME280;23197;53.912;9.138;2022-11-20T11:23:04;100963.59;;;11.95;55.27
37312;BME280;23197;53.912;9.138;2022-11-20T11:28:25;100966.00;;;11.59;57.83
37312;BME280;23197;53.912;9.138;2022-11-20T11:30:52;100969.25;;;11.50;59.06
37312;BME280;23197;53.912;9.138;2022-11-20T11:33:23;100966.38;;;11.40;59.91
37312;BME280;23197;53.912;9.138;2022-11-20T11:35:52;100967.59;;;11.34;59.18
37312;BME280;23197;53.912;9.138;2022-11-20T11:38:38;100963.63;;;11.29;60.74
37312;BME280;23197;53.912;9.138;2022-11-20T11:41:06;100962.34;;;11.22;58.78
37312;BME280;23197;53.912;9.138;2022-11-20T11:43:36;100950.13;;;11.08;57.55
37312;BME280;23197;53.912;9.138;2022-11-20T11:48:57;100942.03;;;10.71;58.46
37312;BME280;23197;53.912;9.138;2022-11-20T11:51:36;100940.28;;;10.57;58.51
37312;BME280;23197;53.912;9.138;2022-11-20T11:54:15;100944.94;;;10.38;58.60
37312;BME280;23197;53.912;9.138;2022-11-20T11:56:43;100948.41;;;10.24;58.62
37312;BME280;23197;53.912;9.138;2022-11-20T11:59:14;100941.28;;;10.12;59.24
37312;BME280;23197;53.912;9.138;2022-11-20T12:01:53;100930.63;;;10.01;59.44
37312;BME280;23197;53.912;9.138;2022-11-20T12:07:12;100930.97;;;9.81;60.96
37312;BME280;23197;53.912;9.138;2022-11-20T12:09:46;100921.63;;;9.76;61.07
37312;BME280;23197;53.912;9.138;2022-11-20T12:12:20;100920.50;;;9.66;60.26
37312;BME280;23197;53.912;9.138;2022-11-20T12:14:48;100928.13;;;9.55;60.57
37312;BME280;23197;53.912;9.138;2022-11-20T12:17:15;100928.81;;;9.43;60.82
37312;BME280;23197;53.912;9.138;2022-11-20T12:19:41;100925.97;;;9.32;60.84
37312;BME280;23197;53.912;9.138;2022-11-20T12:25:11;100925.19;;;9.15;60.66
37312;BME280;23197;53.912;9.138;2022-11-20T12:33:48;100924.69;;;8.93;60.44
37312;BME280;23197;53.912;9.138;2022-11-20T12:36:32;100921.66;;;8.85;60.70
37312;BME280;23197;53.912;9.138;2022-11-20T12:39:10;100931.69;;;8.77;61.26
37312;BME280;23197;53.912;9.138;2022-11-20T12:42:11;100930.75;;;8.78;61.88
37312;BME280;23197;53.912;9.138;2022-11-20T12:45:10;100921.34;;;8.91;62.42
37312;BME280;23197;53.912;9.138;2022-11-20T13:08:02;100906.63;;;13.09;64.56
37312;BME280;23197;53.912;9.138;2022-11-20T13:10:43;100908.13;;;13.48;65.32
37312;BME280;23197;53.912;9.138;2022-11-20T13:13:48;100908.94;;;13.95;64.17
37312;BME280;23197;53.912;9.138;2022-11-20T13:16:36;100905.13;;;14.33;61.79
37312;BME280;23197;53.912;9.138;2022-11-20T13:19:09;100911.13;;;14.57;61.94
37312;BME280;23197;53.912;9.138;2022-11-20T13:21:38;100907.50;;;14.81;61.19
37312;BME280;23197;53.912;9.138;2022-11-20T13:26:59;100901.19;;;15.04;58.62
37312;BME280;23197;53.912;9.138;2022-11-20T13:29:24;100899.19;;;14.97;56.54
37312;BME280;23197;53.912;9.138;2022-11-20T13:31:50;100894.34;;;14.81;54.58
37312;BME280;23197;53.912;9.138;2022-11-20T13:34:26;100895.06;;;14.72;56.44
37312;BME280;23197;53.912;9.138;2022-11-20T13:36:54;100882.41;;;14.77;58.16
37312;BME280;23197;53.912;9.138;2022-11-20T13:39:31;100882.09;;;14.91;58.50
37312;BME280;23197;53.912;9.138;2022-11-20T13:42:25;100877.72;;;15.12;58.81
37312;BME280;23197;53.912;9.138;2022-11-20T13:44:53;100873.63;;;15.19;57.01
37312;BME280;23197;53.912;9.138;2022-11-20T13:47:28;100880.09;;;15.15;54.77
37312;BME280;23197;53.912;9.138;2022-11-20T13:49:58;100873.81;;;15.07;55.04
37312;BME280;23197;53.912;9.138;2022-11-20T13:55:21;100880.25;;;14.71;52.74
37312;BME280;23197;53.912;9.138;2022-11-20T14:00:51;100869.78;;;14.03;51.39
37312;BME280;23197;53.912;9.138;2022-11-20T14:03:22;100876.19;;;13.66;50.29
37312;BME280;23197;53.912;9.138;2022-11-20T14:05:55;100867.22;;;13.22;50.87
37312;BME280;23197;53.912;9.138;2022-11-20T14:11:24;100872.28;;;12.40;51.05
37312;BME280;23197;53.912;9.138;2022-11-20T14:14:17;100876.44;;;12.06;51.55
37312;BME280;23197;53.912;9.138;2022-11-20T14:16:43;100879.06;;;11.81;51.54
37312;BME280;23197;53.912;9.138;2022-11-20T14:19:28;100880.13;;;11.51;52.62
37312;BME280;23197;53.912;9.138;2022-11-20T14:24:45;100869.16;;;11.06;53.70
37312;BME280;23197;53.912;9.138;2022-11-20T14:27:18;100881.84;;;10.85;53.86
37312;BME280;23197;53.912;9.138;2022-11-20T14:29:45;100873.72;;;10.63;55.11
37312;BME280;23197;53.912;9.138;2022-11-20T14:32:14;100860.47;;;10.52;55.01
37312;BME280;23197;53.912;9.138;2022-11-20T14:34:43;100864.69;;;10.40;55.40